Time;durP1;ratioP1;P1;durP2;ratioP2;P2;SDS_P1;SDS_P2;PMS_P1;PMS_P2;Temp;Humidity;BMP_temperature;BMP_pressure;BME280_temperature;BME280_humidity;BME280_pressure;Samples;Min_cycle;Max_cycle;Signal;HPM_P1;HPM_P2
2022/02/13 00:03:05;;;;;;;4.18;1.83;;;;;;;;;;10365291;28;20050;-67
2022/02/13 00:08:09;;;;;;;5.07;2.13;;;;;;;;;;10364994;28;20125;-68
2022/02/13 00:13:33;;;;;;;1.27;1.10;;;;;;;;;;10363841;28;20084;-68
2022/02/13 00:18:39;;;;;;;2.38;1.40;;;;;;;;;;10389210;28;20046;-67
2022/02/13 00:24:03;;;;;;;0.40;0.40;;;;;;;;;;10405330;22;20046;-72
2022/02/13 00:29:07;;;;;;;1.40;0.60;;;;;;;;;;10393930;28;20380;-70
2022/02/13 00:34:14;;;;;;;0.87;0.60;;;;;;;;;;10366084;28;20050;-72
2022/02/13 00:39:16;;;;;;;1.35;0.32;;;;;;;;;;10358549;28;20093;-72
2022/02/13 00:44:19;;;;;;;1.77;1.37;;;;;;;;;;10359423;28;20494;-74
2022/02/13 00:49:23;;;;;;;3.60;1.33;;;;;;;;;;10362423;28;20505;-73
2022/02/13 00:54:26;;;;;;;2.00;0.90;;;;;;;;;;10362111;28;20494;-73
2022/02/13 00:59:29;;;;;;;1.60;0.97;;;;;;;;;;10365637;28;20038;-74
2022/02/13 01:04:33;;;;;;;3.30;1.50;;;;;;;;;;10348563;28;20049;-73
2022/02/13 01:09:36;;;;;;;1.23;0.77;;;;;;;;;;10368225;28;20266;-72
2022/02/13 01:14:39;;;;;;;2.63;0.90;;;;;;;;;;10353884;28;20049;-72
2022/02/13 01:19:43;;;;;;;2.73;1.50;;;;;;;;;;10358340;28;20530;-72
2022/02/13 01:24:47;;;;;;;2.23;0.77;;;;;;;;;;10361196;28;20038;-72
2022/02/13 01:29:49;;;;;;;0.80;0.60;;;;;;;;;;10356725;28;20089;-72
2022/02/13 01:34:54;;;;;;;1.17;0.73;;;;;;;;;;10365889;28;20145;-73
2022/02/13 01:39:56;;;;;;;;;;;;;;;;;;10375047;28;20034;-73
2022/02/13 01:44:59;;;;;;;4.37;0.77;;;;;;;;;;10367465;28;19922;-73
2022/02/13 01:50:04;;;;;;;1.03;0.83;;;;;;;;;;10369293;28;20053;-73
2022/02/13 01:55:08;;;;;;;2.07;0.90;;;;;;;;;;10376877;28;20045;-71
2022/02/13 02:00:11;;;;;;;0.40;0.40;;;;;;;;;;10359243;28;20552;-73
2022/02/13 02:05:16;;;;;;;2.30;0.80;;;;;;;;;;10380326;28;20037;-72
2022/02/13 02:10:23;;;;;;;0.90;0.80;;;;;;;;;;10367286;28;20053;-73
2022/02/13 02:15:27;;;;;;;0.93;0.47;;;;;;;;;;10366467;28;20486;-74
2022/02/13 02:20:32;;;;;;;0.13;0.10;;;;;;;;;;10369236;28;20402;-74
2022/02/13 02:25:36;;;;;;;3.13;0.77;;;;;;;;;;10364040;28;20216;-73
2022/02/13 02:30:43;;;;;;;3.00;1.00;;;;;;;;;;10359723;28;20466;-70
2022/02/13 02:35:47;;;;;;;1.47;0.50;;;;;;;;;;10368765;28;20096;-73
2022/02/13 02:40:51;;;;;;;0.37;0.10;;;;;;;;;;10362805;28;20485;-73
2022/02/13 02:45:54;;;;;;;;;;;;;;;;;;10364091;28;20038;-73
2022/02/13 02:50:56;;;;;;;0.03;0.03;;;;;;;;;;10367250;28;20012;-73
2022/02/13 02:56:01;;;;;;;1.27;0.57;;;;;;;;;;10365201;28;20131;-71
2022/02/13 03:01:05;;;;;;;1.07;0.70;;;;;;;;;;10365104;28;20065;-72
2022/02/13 03:06:08;;;;;;;0.77;0.50;;;;;;;;;;10356278;28;20257;-72
2022/02/13 03:11:13;;;;;;;0.50;0.40;;;;;;;;;;10359170;28;20046;-73
2022/02/13 03:16:15;;;;;;;2.13;0.80;;;;;;;;;;10362997;28;20490;-74
2022/02/13 03:21:18;;;;;;;1.70;0.50;;;;;;;;;;10366658;28;20034;-73
2022/02/13 03:26:24;;;;;;;1.30;0.53;;;;;;;;;;10365711;28;20486;-71
2022/02/13 03:31:27;;;;;;;1.13;0.20;;;;;;;;;;10359186;28;20045;-72
2022/02/13 03:36:30;;;;;;;1.73;0.70;;;;;;;;;;10374858;28;20045;-74
2022/02/13 03:41:34;;;;;;;0.00;0.00;;;;;;;;;;10371416;28;20042;-73
2022/02/13 03:46:37;;;;;;;0.20;0.20;;;;;;;;;;10359429;28;20065;-71
2022/02/13 03:51:41;;;;;;;0.23;0.23;;;;;;;;;;10365448;28;20041;-72
2022/02/13 03:56:44;;;;;;;;;;;;;;;;;;10367998;28;20112;-71
2022/02/13 04:01:49;;;;;;;1.40;0.93;;;;;;;;;;10363621;28;20122;-72
2022/02/13 04:06:51;;;;;;;0.75;0.30;;;;;;;;;;10354991;28;20469;-71
2022/02/13 04:11:54;;;;;;;1.93;0.60;;;;;;;;;;10357075;28;20046;-72
2022/02/13 04:16:59;;;;;;;5.13;0.37;;;;;;;;;;10362210;28;20429;-73
2022/02/13 04:22:01;;;;;;;;;;;;;;;;;;10361188;28;20375;-72
2022/02/13 04:27:04;;;;;;;0.23;0.23;;;;;;;;;;10358544;28;19968;-72
2022/02/13 04:32:09;;;;;;;0.20;0.20;;;;;;;;;;10357488;28;20525;-72
2022/02/13 04:37:13;;;;;;;0.93;0.67;;;;;;;;;;10365712;28;20053;-74
2022/02/13 04:42:16;;;;;;;0.83;0.57;;;;;;;;;;10358494;28;20038;-73
2022/02/13 04:47:20;;;;;;;2.27;0.70;;;;;;;;;;10356651;28;20191;-73
2022/02/13 04:52:23;;;;;;;0.23;0.17;;;;;;;;;;10360312;28;20120;-71
2022/02/13 04:57:27;;;;;;;1.37;0.70;;;;;;;;;;10360672;28;20049;-70
2022/02/13 05:02:31;;;;;;;1.20;0.47;;;;;;;;;;10373840;28;20033;-73
2022/02/13 05:07:34;;;;;;;0.30;0.30;;;;;;;;;;10358858;28;20070;-71
2022/02/13 05:12:37;;;;;;;0.63;0.10;;;;;;;;;;10355811;28;20026;-71
2022/02/13 05:17:42;;;;;;;1.50;0.43;;;;;;;;;;10362065;28;20042;-71
2022/02/13 05:22:44;;;;;;;0.00;0.00;;;;;;;;;;10356496;28;20049;-71
2022/02/13 05:27:47;;;;;;;1.43;0.73;;;;;;;;;;10356457;28;20038;-72
2022/02/13 05:32:52;;;;;;;7.67;0.50;;;;;;;;;;10354845;28;20133;-72
2022/02/13 05:37:55;;;;;;;0.40;0.40;;;;;;;;;;10356727;28;20038;-73
2022/02/13 05:42:58;;;;;;;1.50;0.60;;;;;;;;;;10357000;28;20073;-72
2022/02/13 05:48:02;;;;;;;0.30;0.20;;;;;;;;;;10355295;28;20038;-72
2022/02/13 05:53:05;;;;;;;;;;;;;;;;;;10365871;28;20041;-73
2022/02/13 05:58:07;;;;;;;2.90;0.33;;;;;;;;;;10354332;28;19979;-73
2022/02/13 06:03:12;;;;;;;0.53;0.43;;;;;;;;;;10352860;28;20516;-72
2022/02/13 06:08:14;;;;;;;;;;;;;;;;;;10355111;28;20045;-71
2022/02/13 06:13:17;;;;;;;0.70;0.70;;;;;;;;;;10358832;28;19973;-74
2022/02/13 06:18:22;;;;;;;0.20;0.20;;;;;;;;;;10354637;28;20487;-73
2022/02/13 06:23:26;;;;;;;0.13;0.13;;;;;;;;;;10394869;22;20053;-77
2022/02/13 06:28:32;;;;;;;2.33;0.70;;;;;;;;;;10381097;28;20090;-77
2022/02/13 06:33:36;;;;;;;1.50;0.53;;;;;;;;;;10366507;28;20065;-77
2022/02/13 06:38:38;;;;;;;1.83;0.50;;;;;;;;;;10375518;28;20492;-76
2022/02/13 06:43:42;;;;;;;2.30;0.65;;;;;;;;;;10379082;28;20418;-77
2022/02/13 06:48:46;;;;;;;0.20;0.20;;;;;;;;;;10374230;28;20594;-80
2022/02/13 06:53:49;;;;;;;;;;;;;;;;;;10374032;28;20061;-78
2022/02/13 06:58:52;;;;;;;0.83;0.63;;;;;;;;;;10380318;28;19932;-78
2022/02/13 07:03:56;;;;;;;1.80;0.87;;;;;;;;;;10366145;28;20667;-77
2022/02/13 07:08:59;;;;;;;;;;;;;;;;;;10373373;28;20038;-80
2022/02/13 07:14:03;;;;;;;0.65;0.57;;;;;;;;;;10383418;28;20242;-80
2022/02/13 07:19:07;;;;;;;0.68;0.68;;;;;;;;;;10393662;22;20038;-71
2022/02/13 07:24:09;;;;;;;2.70;1.02;;;;;;;;;;10388678;28;20037;-72
2022/02/13 07:29:12;;;;;;;2.53;0.90;;;;;;;;;;10420496;22;20172;-66
2022/02/13 07:34:17;;;;;;;1.40;0.70;;;;;;;;;;10432566;28;20052;-67
2022/02/13 07:39:38;;;;;;;1.20;0.75;;;;;;;;;;10419461;28;20053;-68
2022/02/13 07:44:54;;;;;;;3.08;1.10;;;;;;;;;;10394976;28;20049;-68
2022/02/13 07:50:01;;;;;;;1.63;1.17;;;;;;;;;;10393269;28;20120;-68
2022/02/13 07:55:15;;;;;;;0.95;0.88;;;;;;;;;;10392996;28;20367;-67
2022/02/13 08:00:20;;;;;;;0.82;0.80;;;;;;;;;;10396093;28;20070;-68
2022/02/13 08:05:27;;;;;;;1.85;1.20;;;;;;;;;;10389615;28;20038;-67
2022/02/13 08:10:31;;;;;;;2.10;1.10;;;;;;;;;;10396222;28;20518;-67
2022/02/13 08:15:35;;;;;;;4.97;1.17;;;;;;;;;;10397091;28;20046;-68
2022/02/13 08:20:49;;;;;;;2.08;1.25;;;;;;;;;;10388928;28;20570;-67
2022/02/13 08:25:54;;;;;;;1.48;1.00;;;;;;;;;;10389707;28;20052;-67
2022/02/13 08:30:58;;;;;;;1.77;1.23;;;;;;;;;;10382051;28;20124;-67
2022/02/13 08:36:12;;;;;;;1.95;1.00;;;;;;;;;;10395865;28;20071;-66
2022/02/13 08:41:25;;;;;;;1.00;0.90;;;;;;;;;;10394617;28;20042;-68
2022/02/13 08:46:28;;;;;;;1.42;1.00;;;;;;;;;;10393104;28;20154;-67
2022/02/13 08:51:37;;;;;;;3.65;1.27;;;;;;;;;;10388038;28;20045;-69
2022/02/13 08:56:41;;;;;;;3.60;1.20;;;;;;;;;;10391584;28;20049;-68
2022/02/13 09:01:44;;;;;;;2.10;1.20;;;;;;;;;;10391646;28;20044;-68
2022/02/13 09:06:49;;;;;;;1.23;1.00;;;;;;;;;;10390741;28;20041;-67
2022/02/13 09:11:53;;;;;;;1.52;1.13;;;;;;;;;;10395080;28;20475;-67
2022/02/13 09:16:55;;;;;;;2.53;1.35;;;;;;;;;;10382218;28;20093;-69
2022/02/13 09:22:00;;;;;;;2.75;1.40;;;;;;;;;;10385732;28;20038;-68
2022/02/13 09:27:03;;;;;;;3.15;1.40;;;;;;;;;;10385611;28;20049;-67
2022/02/13 09:32:11;;;;;;;1.52;1.20;;;;;;;;;;10393696;28;20148;-67
2022/02/13 09:37:16;;;;;;;2.22;1.35;;;;;;;;;;10389270;28;20102;-67
2022/02/13 09:42:21;;;;;;;3.42;1.73;;;;;;;;;;10390248;28;20099;-69
2022/02/13 09:47:28;;;;;;;2.47;1.40;;;;;;;;;;10392537;28;20513;-68
2022/02/13 09:52:37;;;;;;;1.63;1.13;;;;;;;;;;10393514;28;20045;-68
2022/02/13 10:03:16;;;;;;;2.50;1.67;;;;;;;;;;10392609;28;20041;-68
2022/02/13 10:08:28;;;;;;;1.95;1.60;;;;;;;;;;10395803;28;20056;-69
2022/02/13 10:13:41;;;;;;;2.53;1.83;;;;;;;;;;10395213;28;20088;-67
2022/02/13 10:18:48;;;;;;;4.07;2.05;;;;;;;;;;10395195;28;20073;-68
2022/02/13 10:23:53;;;;;;;2.45;1.63;;;;;;;;;;10402450;28;20447;-68
2022/02/13 10:29:02;;;;;;;3.00;1.88;;;;;;;;;;10394692;28;20049;-67
2022/02/13 10:34:06;;;;;;;2.92;1.67;;;;;;;;;;10393500;28;20033;-68
2022/02/13 10:39:28;;;;;;;3.42;2.10;;;;;;;;;;10397519;28;20073;-68
2022/02/13 10:44:36;;;;;;;2.30;1.65;;;;;;;;;;10394513;28;21513;-68
2022/02/13 10:49:42;;;;;;;2.95;1.80;;;;;;;;;;10401794;28;20041;-68
2022/02/13 10:54:47;;;;;;;3.65;2.20;;;;;;;;;;10391663;28;20041;-67
2022/02/13 10:59:50;;;;;;;3.15;1.85;;;;;;;;;;10391941;28;20073;-68
2022/02/13 11:04:57;;;;;;;4.95;1.70;;;;;;;;;;10392699;28;20045;-68
2022/02/13 11:10:02;;;;;;;3.90;1.90;;;;;;;;;;10417770;28;20045;-69
2022/02/13 11:15:17;;;;;;;4.32;2.40;;;;;;;;;;10409538;28;20423;-68
2022/02/13 11:20:20;;;;;;;3.60;1.95;;;;;;;;;;10394309;28;20037;-69
2022/02/13 11:25:42;;;;;;;5.30;2.40;;;;;;;;;;10402950;28;20048;-68
2022/02/13 11:30:49;;;;;;;3.78;2.30;;;;;;;;;;10393925;28;20421;-68
2022/02/13 11:35:53;;;;;;;4.22;2.45;;;;;;;;;;10389372;28;20049;-68
2022/02/13 11:40:56;;;;;;;4.60;2.50;;;;;;;;;;10395409;28;20677;-67
2022/02/13 11:46:01;;;;;;;4.10;2.72;;;;;;;;;;10389447;28;20049;-68
2022/02/13 11:51:09;;;;;;;6.35;2.70;;;;;;;;;;10395815;28;20032;-68
2022/02/13 11:56:21;;;;;;;2.70;2.45;;;;;;;;;;10383622;28;20061;-68
2022/02/13 12:01:44;;;;;;;3.37;2.33;;;;;;;;;;10393549;28;20052;-69
2022/02/13 12:06:53;;;;;;;6.13;1.90;;;;;;;;;;10386319;28;20630;-69
2022/02/13 12:11:57;;;;;;;5.13;2.78;;;;;;;;;;10395305;28;20045;-67
2022/02/13 12:17:02;;;;;;;4.90;2.47;;;;;;;;;;10391494;28;20095;-69
2022/02/13 12:22:06;;;;;;;7.88;3.28;;;;;;;;;;10395494;28;20405;-68
2022/02/13 12:27:09;;;;;;;4.95;2.60;;;;;;;;;;10389033;28;20121;-69
2022/02/13 12:32:14;;;;;;;6.15;2.60;;;;;;;;;;10387000;28;20107;-68
2022/02/13 12:37:17;;;;;;;3.95;2.45;;;;;;;;;;10392701;28;20033;-69
2022/02/13 12:42:27;;;;;;;3.25;2.15;;;;;;;;;;10391006;28;20045;-66
2022/02/13 12:47:34;;;;;;;4.35;2.20;;;;;;;;;;10384729;28;20095;-67
2022/02/13 12:52:37;;;;;;;5.78;2.45;;;;;;;;;;10389296;28;20525;-67
2022/02/13 12:57:41;;;;;;;7.18;2.58;;;;;;;;;;10389052;28;20041;-68
2022/02/13 13:02:56;;;;;;;4.57;2.78;;;;;;;;;;10393624;28;20041;-67
2022/02/13 13:08:10;;;;;;;4.20;2.28;;;;;;;;;;10387251;28;20045;-67
2022/02/13 13:13:14;;;;;;;5.45;2.47;;;;;;;;;;10385791;28;20091;-66
2022/02/13 13:18:34;;;;;;;3.92;2.40;;;;;;;;;;10386751;28;20656;-68
2022/02/13 13:23:37;;;;;;;5.18;2.50;;;;;;;;;;10386266;28;20037;-68
2022/02/13 13:28:41;;;;;;;3.55;2.20;;;;;;;;;;10394906;28;20280;-67
2022/02/13 13:33:46;;;;;;;6.05;2.40;;;;;;;;;;10415988;22;20155;-68
2022/02/13 13:38:49;;;;;;;3.95;2.22;;;;;;;;;;10392356;28;20033;-68
2022/02/13 13:43:52;;;;;;;5.75;2.50;;;;;;;;;;10382220;28;20030;-68
2022/02/13 13:48:56;;;;;;;7.00;2.03;;;;;;;;;;10360261;28;20565;-67
2022/02/13 13:53:59;;;;;;;4.28;2.33;;;;;;;;;;10378542;28;20054;-69
2022/02/13 13:59:02;;;;;;;;;;;;;;;;;;10358526;28;20100;-68
2022/02/13 14:04:06;;;;;;;4.03;2.00;;;;;;;;;;10361809;28;20059;-68
2022/02/13 14:09:09;;;;;;;5.18;2.20;;;;;;;;;;10376598;28;20042;-68
2022/02/13 14:14:12;;;;;;;4.05;1.70;;;;;;;;;;10360232;28;20034;-68
2022/02/13 14:19:16;;;;;;;2.70;1.95;;;;;;;;;;10360804;28;20061;-68
2022/02/13 14:24:19;;;;;;;3.78;1.55;;;;;;;;;;10354896;28;20480;-70
2022/02/13 14:29:21;;;;;;;3.67;1.55;;;;;;;;;;10361666;28;20033;-68
2022/02/13 14:34:26;;;;;;;5.20;1.87;;;;;;;;;;10360134;28;20042;-66
2022/02/13 14:39:31;;;;;;;7.38;2.90;;;;;;;;;;10371782;28;20118;-68
2022/02/13 14:44:36;;;;;;;3.07;1.90;;;;;;;;;;10381918;28;20040;-68
2022/02/13 14:49:44;;;;;;;4.28;1.58;;;;;;;;;;10359947;28;20288;-67
2022/02/13 14:54:47;;;;;;;7.07;1.83;;;;;;;;;;10360563;28;20509;-67
2022/02/13 14:59:50;;;;;;;2.75;1.30;;;;;;;;;;10357724;28;20108;-68
2022/02/13 15:04:54;;;;;;;6.17;1.80;;;;;;;;;;10359755;28;20041;-67
2022/02/13 15:09:57;;;;;;;5.68;3.10;;;;;;;;;;10358124;28;20394;-68
2022/02/13 15:15:00;;;;;;;1.57;1.07;;;;;;;;;;10361459;28;20050;-68
2022/02/13 15:20:05;;;;;;;5.20;1.67;;;;;;;;;;10357998;28;20096;-69
2022/02/13 15:25:08;;;;;;;3.58;2.00;;;;;;;;;;10360607;28;20034;-67
2022/02/13 15:30:11;;;;;;;;;;;;;;;;;;10357927;28;20054;-68
2022/02/13 15:35:15;;;;;;;2.38;1.17;;;;;;;;;;10361257;28;20004;-69
2022/02/13 15:40:18;;;;;;;2.10;0.80;;;;;;;;;;10354047;28;20100;-68
2022/02/13 15:45:21;;;;;;;2.28;1.10;;;;;;;;;;10356338;28;20106;-68
2022/02/13 15:50:26;;;;;;;0.80;0.65;;;;;;;;;;10356860;28;20060;-69
2022/02/13 15:55:28;;;;;;;4.25;1.00;;;;;;;;;;10355710;28;20068;-67
2022/02/13 16:00:31;;;;;;;1.35;0.75;;;;;;;;;;10351548;28;20050;-68
2022/02/13 16:05:36;;;;;;;3.60;1.50;;;;;;;;;;10353896;28;20453;-69
2022/02/13 16:10:39;;;;;;;3.22;1.02;;;;;;;;;;10352181;28;20041;-67
2022/02/13 16:15:43;;;;;;;3.97;1.50;;;;;;;;;;10357688;28;20077;-68
2022/02/13 16:20:47;;;;;;;2.20;1.35;;;;;;;;;;10354608;28;20077;-70
2022/02/13 16:25:50;;;;;;;4.40;1.77;;;;;;;;;;10350115;28;20042;-67
2022/02/13 16:30:53;;;;;;;4.47;1.45;;;;;;;;;;10353971;28;20126;-69
2022/02/13 16:35:57;;;;;;;2.47;1.35;;;;;;;;;;10355038;28;20143;-68
2022/02/13 16:41:00;;;;;;;;;;;;;;;;;;10351823;28;20100;-67
2022/02/13 16:46:07;;;;;;;1.00;0.93;;;;;;;;;;10376538;28;19929;-68
2022/02/13 16:51:11;;;;;;;3.55;1.55;;;;;;;;;;10347487;28;20108;-69
2022/02/13 16:56:14;;;;;;;3.33;1.67;;;;;;;;;;10351466;28;20375;-67
2022/02/13 17:01:17;;;;;;;4.45;1.70;;;;;;;;;;10354061;28;20446;-66
2022/02/13 17:06:22;;;;;;;2.08;1.35;;;;;;;;;;10352716;28;20088;-66
2022/02/13 17:11:26;;;;;;;4.03;1.60;;;;;;;;;;10356880;28;20046;-68
2022/02/13 17:16:29;;;;;;;3.42;1.50;;;;;;;;;;10350180;28;20041;-66
2022/02/13 17:21:33;;;;;;;4.60;2.25;;;;;;;;;;10351065;28;20045;-68
2022/02/13 17:26:35;;;;;;;;;;;;;;;;;;10351915;28;20037;-65
2022/02/13 17:31:38;;;;;;;4.67;1.70;;;;;;;;;;10353337;28;19997;-69
2022/02/13 17:36:42;;;;;;;5.13;1.77;;;;;;;;;;10370060;28;20077;-68
2022/02/13 17:41:45;;;;;;;2.95;1.90;;;;;;;;;;10358852;28;20080;-67
2022/02/13 17:46:48;;;;;;;6.40;2.38;;;;;;;;;;10372514;28;20101;-67
2022/02/13 17:51:53;;;;;;;5.90;2.50;;;;;;;;;;10356494;28;20390;-66
2022/02/13 17:56:56;;;;;;;5.57;2.70;;;;;;;;;;10349461;28;20514;-67
2022/02/13 18:01:59;;;;;;;6.60;2.60;;;;;;;;;;10353865;28;20422;-67
2022/02/13 18:07:04;;;;;;;10.17;3.17;;;;;;;;;;10351586;28;20443;-68
2022/02/13 18:12:07;;;;;;;7.87;3.70;;;;;;;;;;10353243;28;20053;-67
2022/02/13 18:17:12;;;;;;;7.37;3.13;;;;;;;;;;10361628;28;20089;-68
2022/02/13 18:22:17;;;;;;;11.65;4.25;;;;;;;;;;10358648;28;20068;-67
2022/02/13 18:27:20;;;;;;;10.65;4.18;;;;;;;;;;10376536;28;20103;-68
2022/02/13 18:32:22;;;;;;;8.00;4.27;;;;;;;;;;10353329;28;20038;-68
2022/02/13 18:37:26;;;;;;;7.50;3.33;;;;;;;;;;10359702;28;20073;-67
2022/02/13 18:42:29;;;;;;;4.78;2.08;;;;;;;;;;10362891;28;20452;-68
2022/02/13 18:47:32;;;;;;;4.27;2.00;;;;;;;;;;10362513;28;20562;-70
2022/02/13 18:52:46;;;;;;;7.53;3.17;;;;;;;;;;10361396;28;20042;-69
2022/02/13 18:57:49;;;;;;;4.13;2.03;;;;;;;;;;10362329;28;20038;-68
2022/02/13 19:02:52;;;;;;;5.73;2.43;;;;;;;;;;10359114;28;20068;-68
2022/02/13 19:07:58;;;;;;;12.37;3.40;;;;;;;;;;10360649;28;20046;-68
2022/02/13 19:13:01;;;;;;;10.50;3.10;;;;;;;;;;10360076;28;20101;-68
2022/02/13 19:18:04;;;;;;;9.07;3.20;;;;;;;;;;10359682;28;20046;-69
2022/02/13 19:23:09;;;;;;;5.28;2.90;;;;;;;;;;10390057;28;20084;-68
2022/02/13 19:28:24;;;;;;;;;;;;;;;;;;10355702;28;20501;-68
2022/02/13 19:33:28;;;;;;;9.27;2.83;;;;;;;;;;10376209;28;20185;-69
2022/02/13 19:38:34;;;;;;;6.87;3.00;;;;;;;;;;10385121;22;20045;-72
2022/02/13 19:43:37;;;;;;;12.90;3.70;;;;;;;;;;10399656;28;20033;-72
2022/02/13 19:48:42;;;;;;;6.82;3.47;;;;;;;;;;10405757;28;20099;-71
2022/02/13 19:53:44;;;;;;;;;;;;;;;;;;10404774;28;20037;-73
2022/02/13 19:58:48;;;;;;;8.67;3.77;;;;;;;;;;10396654;28;19967;-71
2022/02/13 20:03:51;;;;;;;;;;;;;;;;;;10404138;28;20033;-75
2022/02/13 20:08:57;;;;;;;10.67;4.07;;;;;;;;;;10402639;28;19956;-73
2022/02/13 20:14:18;;;;;;;3.77;2.33;;;;;;;;;;10401396;28;20124;-72
2022/02/13 20:19:24;;;;;;;9.65;3.83;;;;;;;;;;10392561;28;20045;-74
2022/02/13 20:24:27;;;;;;;4.67;1.37;;;;;;;;;;10392474;28;21352;-72
2022/02/13 20:29:32;;;;;;;2.47;1.70;;;;;;;;;;10405187;28;20368;-73
2022/02/13 20:34:36;;;;;;;7.70;1.83;;;;;;;;;;10400988;28;20572;-71
2022/02/13 20:39:40;;;;;;;9.07;3.67;;;;;;;;;;10388829;28;20099;-72
2022/02/13 20:44:44;;;;;;;9.85;3.90;;;;;;;;;;10387043;28;20401;-71
2022/02/13 20:49:48;;;;;;;9.80;4.43;;;;;;;;;;10407703;28;20446;-72
2022/02/13 20:54:51;;;;;;;3.20;1.97;;;;;;;;;;10391938;28;20037;-72
2022/02/13 20:59:55;;;;;;;12.87;5.23;;;;;;;;;;10388538;28;20510;-74
2022/02/13 21:04:58;;;;;;;;;;;;;;;;;;10404206;28;20072;-72
2022/02/13 21:10:01;;;;;;;10.63;3.53;;;;;;;;;;10384876;28;19961;-72
2022/02/13 21:15:05;;;;;;;4.13;1.77;;;;;;;;;;10399159;28;20045;-71
2022/02/13 21:20:11;;;;;;;6.73;2.33;;;;;;;;;;10400702;28;20091;-71
2022/02/13 21:25:14;;;;;;;5.63;2.13;;;;;;;;;;10393992;28;20041;-72
2022/02/13 21:30:19;;;;;;;7.07;2.83;;;;;;;;;;10391561;28;20524;-72
2022/02/13 21:35:22;;;;;;;;;;;;;;;;;;10401723;28;20041;-74
2022/02/13 21:40:25;;;;;;;6.60;3.27;;;;;;;;;;10418495;28;20368;-74
2022/02/13 21:45:30;;;;;;;9.25;3.40;;;;;;;;;;10418048;28;20044;-73
2022/02/13 21:50:33;;;;;;;9.60;4.03;;;;;;;;;;10398805;28;20049;-71
2022/02/13 21:55:36;;;;;;;3.67;1.80;;;;;;;;;;10397158;28;20037;-73
2022/02/13 22:00:40;;;;;;;3.13;1.60;;;;;;;;;;10402484;28;20048;-71
2022/02/13 22:05:43;;;;;;;7.70;2.80;;;;;;;;;;10406576;28;20037;-73
2022/02/13 22:10:46;;;;;;;4.33;2.00;;;;;;;;;;10404945;28;20041;-73
2022/02/13 22:15:52;;;;;;;4.70;2.13;;;;;;;;;;10424580;28;20506;-73
2022/02/13 22:20:55;;;;;;;2.97;1.80;;;;;;;;;;10407719;28;20045;-73
2022/02/13 22:25:58;;;;;;;3.20;1.27;;;;;;;;;;10409843;28;20037;-73
2022/02/13 22:31:02;;;;;;;7.77;2.47;;;;;;;;;;10399137;28;20457;-73
2022/02/13 22:36:04;;;;;;;;;;;;;;;;;;10390493;28;20095;-74
2022/02/13 22:41:07;;;;;;;3.40;1.90;;;;;;;;;;10400853;28;20427;-74
2022/02/13 22:46:11;;;;;;;5.33;2.03;;;;;;;;;;10402159;28;20077;-73
2022/02/13 22:51:14;;;;;;;3.80;1.10;;;;;;;;;;10404629;28;20045;-74
2022/02/13 22:56:17;;;;;;;2.30;0.83;;;;;;;;;;10398490;28;20328;-72
2022/02/13 23:01:21;;;;;;;4.47;1.07;;;;;;;;;;10401178;28;20063;-71
2022/02/13 23:06:24;;;;;;;;;;;;;;;;;;10397930;28;20497;-73
2022/02/13 23:16:49;;;;;;;4.50;1.60;;;;;;;;;;10397694;28;20033;-72
2022/02/13 23:21:52;;;;;;;4.07;1.57;;;;;;;;;;10396324;28;20041;-72
2022/02/13 23:26:56;;;;;;;5.18;2.20;;;;;;;;;;10397221;28;20099;-71
2022/02/13 23:32:01;;;;;;;2.80;1.23;;;;;;;;;;10393189;28;20398;-73
2022/02/13 23:37:04;;;;;;;4.27;1.70;;;;;;;;;;10403083;28;20030;-72
2022/02/13 23:42:08;;;;;;;1.73;1.10;;;;;;;;;;10400843;28;20033;-72
2022/02/13 23:47:12;;;;;;;4.07;1.60;;;;;;;;;;10401270;28;20084;-71
2022/02/13 23:52:15;;;;;;;;;;;;;;;;;;10397776;28;20045;-72
2022/02/13 23:57:18;;;;;;;4.00;1.10;;;;;;;;;;10392243;28;19967;-72
